Time;durP1;ratioP1;P1;durP2;ratioP2;P2;SDS_P1;SDS_P2;PMS_P1;PMS_P2;Temp;Humidity;BMP_temperature;BMP_pressure;BME280_temperature;BME280_humidity;BME280_pressure;Samples;Min_cycle;Max_cycle;Signal;HPM_P1;HPM_P2
2022/03/22 00:00:33;;;;;;;;;;;17.30;41.30;;;;;;5069642;28;42991;-77
2022/03/22 00:02:59;;;;;;;;;;;17.30;41.00;;;;;;5068992;28;42986;-77
2022/03/22 00:05:24;;;;;;;;;;;17.30;41.60;;;;;;5070332;28;43155;-77
2022/03/22 00:07:50;;;;;;;;;;;17.30;41.70;;;;;;5069664;28;43101;-77
2022/03/22 00:10:15;;;;;;;;;;;17.30;41.90;;;;;;5070498;28;43045;-77
2022/03/22 00:12:41;;;;;;;;;;;17.30;41.70;;;;;;5070454;28;43048;-77
2022/03/22 00:15:08;;;;;;;;;;;17.30;41.70;;;;;;5070653;28;42997;-76
2022/03/22 00:17:34;;;;;;;;;;;17.30;41.70;;;;;;5068157;28;42926;-76
2022/03/22 00:20:00;;;;;;;;;;;17.30;41.70;;;;;;5068891;28;42923;-76
2022/03/22 00:22:26;;;;;;;;;;;17.30;41.10;;;;;;5050613;28;45612;-76
2022/03/22 00:24:51;;;;;;;;;;;17.30;41.60;;;;;;5066261;28;42938;-78
2022/03/22 00:27:17;;;;;;;;;;;17.30;41.60;;;;;;5065789;28;42994;-76
2022/03/22 00:29:42;;;;;;;;;;;17.30;41.60;;;;;;5065895;28;43160;-78
2022/03/22 00:32:08;;;;;;;;;;;17.30;41.10;;;;;;5065194;28;43472;-76
2022/03/22 00:34:34;;;;;;;;;;;17.30;41.60;;;;;;5065617;28;43007;-76
2022/03/22 00:37:00;;;;;;;;;;;17.30;42.00;;;;;;5065641;28;42994;-76
2022/03/22 00:39:25;;;;;;;;;;;17.30;41.50;;;;;;5066239;28;42749;-76
2022/03/22 00:41:52;;;;;;;;;;;17.30;41.50;;;;;;5066234;28;42785;-75
2022/03/22 00:44:18;;;;;;;;;;;17.30;41.70;;;;;;5066459;28;42859;-76
2022/03/22 00:46:43;;;;;;;;;;;17.30;42.10;;;;;;5065444;28;43080;-76
2022/03/22 00:49:09;;;;;;;;;;;17.30;41.60;;;;;;5062115;28;43238;-76
2022/03/22 00:51:35;;;;;;;;;;;17.30;41.60;;;;;;5064867;28;42927;-77
2022/03/22 00:54:02;;;;;;;;;;;17.30;41.70;;;;;;5064895;28;42972;-76
2022/03/22 00:56:31;;;;;;;;;;;17.30;41.70;;;;;;5065177;28;43747;-75
2022/03/22 01:01:41;;;;;;;;;;;17.30;41.90;;;;;;5064597;28;43209;-76
2022/03/22 01:04:07;;;;;;;;;;;17.30;42.10;;;;;;5056468;28;42943;-75
2022/03/22 01:06:33;;;;;;;;;;;17.30;42.20;;;;;;5065603;28;44024;-76
2022/03/22 01:08:59;;;;;;;;;;;17.30;42.30;;;;;;5065806;28;43020;-76
2022/03/22 01:11:24;;;;;;;;;;;17.30;42.40;;;;;;5047460;28;42825;-77
2022/03/22 01:13:50;;;;;;;;;;;17.30;42.10;;;;;;5066342;28;42822;-76
2022/03/22 01:16:15;;;;;;;;;;;17.30;42.20;;;;;;5065740;28;42946;-76
2022/03/22 01:18:42;;;;;;;;;;;17.30;42.80;;;;;;5065810;28;42966;-76
2022/03/22 01:21:08;;;;;;;;;;;17.40;43.00;;;;;;5064849;28;43982;-76
2022/03/22 01:23:33;;;;;;;;;;;17.30;43.00;;;;;;5065219;28;43074;-76
2022/03/22 01:25:59;;;;;;;;;;;17.30;43.00;;;;;;5064963;28;43129;-76
2022/03/22 01:28:25;;;;;;;;;;;17.30;43.20;;;;;;5065110;28;42896;-76
2022/03/22 01:30:50;;;;;;;;;;;17.30;43.30;;;;;;5064749;28;43429;-76
2022/03/22 01:33:17;;;;;;;;;;;17.30;43.20;;;;;;5065326;28;42947;-76
2022/03/22 01:35:42;;;;;;;;;;;17.30;43.30;;;;;;5064116;28;42926;-76
2022/03/22 01:38:08;;;;;;;;;;;17.30;43.40;;;;;;5065032;28;42860;-76
2022/03/22 01:40:34;;;;;;;;;;;17.30;43.50;;;;;;5065361;28;42901;-76
2022/03/22 01:42:59;;;;;;;;;;;17.30;42.90;;;;;;5065324;28;42913;-75
2022/03/22 01:45:25;;;;;;;;;;;17.30;43.40;;;;;;5065128;28;43810;-75
2022/03/22 01:47:52;;;;;;;;;;;17.30;43.10;;;;;;5065342;28;42900;-76
2022/03/22 01:50:22;;;;;;;;;;;17.40;43.70;;;;;;5065164;28;42927;-76
2022/03/22 01:52:47;;;;;;;;;;;17.40;43.50;;;;;;5065160;28;42916;-76
2022/03/22 01:55:14;;;;;;;;;;;17.40;43.50;;;;;;5064789;28;42928;-75
2022/03/22 01:57:40;;;;;;;;;;;17.40;43.50;;;;;;5065098;28;42903;-76
2022/03/22 02:00:08;;;;;;;;;;;17.30;43.40;;;;;;5064616;28;43034;-75
2022/03/22 02:08:05;;;;;;;;;;;17.40;43.60;;;;;;5065065;28;42937;-76
2022/03/22 02:10:31;;;;;;;;;;;17.30;43.50;;;;;;5064438;28;43046;-76
2022/03/22 02:12:56;;;;;;;;;;;17.30;43.50;;;;;;5064572;28;42848;-77
2022/03/22 02:15:22;;;;;;;;;;;17.30;43.70;;;;;;5064646;28;42816;-77
2022/03/22 02:17:50;;;;;;;;;;;17.30;43.60;;;;;;5064873;28;43251;-78
2022/03/22 02:20:16;;;;;;;;;;;17.30;43.60;;;;;;5064818;28;42941;-78
2022/03/22 02:22:49;;;;;;;;;;;17.30;43.20;;;;;;5064710;28;43020;-77
2022/03/22 02:25:15;;;;;;;;;;;17.40;43.30;;;;;;5064417;28;43943;-77
2022/03/22 02:27:44;;;;;;;;;;;17.30;43.80;;;;;;5045494;28;42968;-77
2022/03/22 02:30:11;;;;;;;;;;;17.30;43.80;;;;;;5063756;28;43716;-77
2022/03/22 02:32:37;;;;;;;;;;;17.30;43.90;;;;;;5064786;28;43116;-77
2022/03/22 02:35:04;;;;;;;;;;;17.40;44.20;;;;;;5061608;28;44058;-77
2022/03/22 02:37:30;;;;;;;;;;;17.40;44.20;;;;;;5065649;28;42978;-76
2022/03/22 02:39:55;;;;;;;;;;;17.30;44.30;;;;;;5081744;28;43266;-77
2022/03/22 02:42:21;;;;;;;;;;;17.40;44.40;;;;;;5063605;28;43120;-76
2022/03/22 02:44:46;;;;;;;;;;;17.30;44.30;;;;;;5070308;28;42972;-76
2022/03/22 02:47:12;;;;;;;;;;;17.30;43.80;;;;;;5084926;27;43082;-77
2022/03/22 02:49:37;;;;;;;;;;;17.40;44.50;;;;;;5083679;28;43298;-76
2022/03/22 02:52:03;;;;;;;;;;;17.30;44.60;;;;;;5066139;28;42974;-77
2022/03/22 02:54:28;;;;;;;;;;;17.40;44.60;;;;;;5067965;28;42925;-77
2022/03/22 02:56:54;;;;;;;;;;;17.40;44.60;;;;;;5045620;28;42795;-77
2022/03/22 02:59:19;;;;;;;;;;;17.40;44.50;;;;;;5059823;28;42985;-78
2022/03/22 03:01:45;;;;;;;;;;;17.30;44.70;;;;;;5042297;28;43037;-77
2022/03/22 03:04:10;;;;;;;;;;;17.40;44.60;;;;;;5043352;28;43530;-76
2022/03/22 03:06:36;;;;;;;;;;;17.30;44.10;;;;;;5042835;28;43258;-78
2022/03/22 03:09:02;;;;;;;;;;;17.40;44.70;;;;;;5042593;28;42987;-77
2022/03/22 03:11:27;;;;;;;;;;;17.30;44.20;;;;;;5058973;28;42934;-78
2022/03/22 03:16:39;;;;;;;;;;;17.40;44.90;;;;;;5063089;28;42876;-77
2022/03/22 03:19:05;;;;;;;;;;;17.40;45.00;;;;;;5062576;28;42868;-76
2022/03/22 03:21:30;;;;;;;;;;;17.40;44.70;;;;;;5064008;28;42939;-76
2022/03/22 03:23:56;;;;;;;;;;;17.40;45.00;;;;;;5062673;28;42971;-78
2022/03/22 03:26:21;;;;;;;;;;;17.40;45.10;;;;;;5045510;28;42941;-76
2022/03/22 03:28:47;;;;;;;;;;;17.40;44.60;;;;;;5063089;28;44025;-77
2022/03/22 03:31:13;;;;;;;;;;;17.40;45.20;;;;;;5061674;28;42970;-75
2022/03/22 03:33:38;;;;;;;;;;;17.40;44.70;;;;;;5062452;28;43081;-78
2022/03/22 03:36:04;;;;;;;;;;;17.40;44.50;;;;;;5062803;28;42908;-76
2022/03/22 03:38:29;;;;;;;;;;;17.40;44.60;;;;;;5063425;28;43406;-76
2022/03/22 03:43:39;;;;;;;;;;;17.40;45.10;;;;;;5063528;28;43487;-78
2022/03/22 03:48:49;;;;;;;;;;;17.40;45.30;;;;;;5083235;28;43025;-77
2022/03/22 03:51:14;;;;;;;;;;;17.40;45.40;;;;;;5083746;28;43055;-77
2022/03/22 03:53:40;;;;;;;;;;;17.40;45.50;;;;;;5082520;28;43952;-77
2022/03/22 03:56:05;;;;;;;;;;;17.40;45.40;;;;;;5083089;28;43192;-77
2022/03/22 03:58:31;;;;;;;;;;;17.40;45.30;;;;;;5082345;28;43010;-78
2022/03/22 04:00:56;;;;;;;;;;;17.40;45.20;;;;;;5085409;27;42988;-78
2022/03/22 04:03:22;;;;;;;;;;;17.30;44.80;;;;;;5086448;28;43620;-78
2022/03/22 04:05:47;;;;;;;;;;;17.40;45.20;;;;;;5085759;28;42941;-77
2022/03/22 04:08:12;;;;;;;;;;;17.40;45.20;;;;;;5085864;28;43653;-76
2022/03/22 04:10:38;;;;;;;;;;;17.40;45.20;;;;;;5085436;28;43467;-76
2022/03/22 04:13:04;;;;;;;;;;;17.40;45.30;;;;;;5085802;28;42911;-76
2022/03/22 04:15:31;;;;;;;;;;;17.40;45.10;;;;;;5067902;28;42977;-77
2022/03/22 04:17:59;;;;;;;;;;;17.30;44.60;;;;;;5078595;28;43063;-77
2022/03/22 04:20:25;;;;;;;;;;;17.40;45.10;;;;;;5065612;28;43218;-77
2022/03/22 04:22:51;;;;;;;;;;;17.40;45.10;;;;;;5064492;28;44475;-77
2022/03/22 04:25:17;;;;;;;;;;;17.40;45.10;;;;;;5066005;28;43011;-76
2022/03/22 04:33:11;;;;;;;;;;;17.30;44.50;;;;;;5064564;28;43259;-76
2022/03/22 04:35:37;;;;;;;;;;;17.40;45.00;;;;;;5065175;28;43139;-76
2022/03/22 04:38:02;;;;;;;;;;;17.40;44.70;;;;;;5065519;28;43038;-76
2022/03/22 04:40:28;;;;;;;;;;;17.30;44.70;;;;;;5065121;28;43072;-76
2022/03/22 04:42:54;;;;;;;;;;;17.40;45.20;;;;;;5064431;28;42995;-84
2022/03/22 04:45:19;;;;;;;;;;;17.40;45.30;;;;;;5063029;28;42990;-77
2022/03/22 04:47:45;;;;;;;;;;;17.40;45.30;;;;;;5057090;28;43422;-79
2022/03/22 04:50:11;;;;;;;;;;;17.40;45.20;;;;;;5047200;28;42861;-76
2022/03/22 04:58:05;;;;;;;;;;;17.30;44.60;;;;;;5064241;28;43262;-75
2022/03/22 05:00:34;;;;;;;;;;;17.40;45.10;;;;;;5042734;28;42959;-80
2022/03/22 05:03:00;;;;;;;;;;;17.40;45.20;;;;;;5063455;28;43115;-80
2022/03/22 05:08:09;;;;;;;;;;;17.40;45.00;;;;;;5064249;28;43180;-80
2022/03/22 05:10:35;;;;;;;;;;;17.40;45.30;;;;;;5064998;28;42845;-80
2022/03/22 05:13:01;;;;;;;;;;;17.30;44.60;;;;;;5056191;28;43853;-81
2022/03/22 05:15:26;;;;;;;;;;;17.40;45.10;;;;;;5051561;28;42954;-80
2022/03/22 05:17:52;;;;;;;;;;;17.40;45.10;;;;;;5067194;28;42970;-79
2022/03/22 05:20:17;;;;;;;;;;;17.40;45.10;;;;;;5049565;28;42872;-77
2022/03/22 05:22:44;;;;;;;;;;;17.30;44.60;;;;;;5060985;28;43703;-77
2022/03/22 05:25:10;;;;;;;;;;;17.40;44.90;;;;;;5063121;28;43131;-78
2022/03/22 05:27:37;;;;;;;;;;;17.40;44.90;;;;;;5062405;28;43082;-79
2022/03/22 05:30:04;;;;;;;;;;;17.40;45.60;;;;;;5041660;28;43079;-78
2022/03/22 05:32:29;;;;;;;;;;;17.40;45.40;;;;;;5061718;28;43928;-78
2022/03/22 05:34:55;;;;;;;;;;;17.40;45.00;;;;;;5045084;28;43440;-78
2022/03/22 05:37:22;;;;;;;;;;;17.40;44.90;;;;;;5054938;28;43476;-78
2022/03/22 05:39:47;;;;;;;;;;;17.40;45.50;;;;;;5046919;28;42983;-77
2022/03/22 05:42:14;;;;;;;;;;;17.40;45.30;;;;;;5059644;28;42924;-76
2022/03/22 05:44:40;;;;;;;;;;;17.40;45.40;;;;;;5062757;28;43308;-76
2022/03/22 05:47:06;;;;;;;;;;;17.40;43.70;;;;;;5061336;28;43306;-74
2022/03/22 05:49:33;;;;;;;;;;;17.40;44.10;;;;;;5061819;28;42915;-75
2022/03/22 05:51:59;;;;;;;;;;;17.30;44.00;;;;;;5060370;28;43149;-75
2022/03/22 05:54:24;;;;;;;;;;;17.30;42.50;;;;;;5044855;28;42920;-75
2022/03/22 05:56:50;;;;;;;;;;;16.80;36.10;;;;;;5062256;28;42899;-75
2022/03/22 05:59:15;;;;;;;;;;;15.50;33.80;;;;;;5060874;28;42982;-77
2022/03/22 06:01:44;;;;;;;;;;;15.20;34.10;;;;;;5059157;28;43157;-76
2022/03/22 06:04:12;;;;;;;;;;;15.20;34.80;;;;;;5068573;28;42860;-84
2022/03/22 06:06:38;;;;;;;;;;;15.50;37.20;;;;;;5043864;28;43187;-75
2022/03/22 06:09:05;;;;;;;;;;;15.80;33.70;;;;;;5061304;28;42981;-79
2022/03/22 06:11:34;;;;;;;;;;;15.70;31.30;;;;;;5064101;28;43037;-79
2022/03/22 06:14:00;;;;;;;;;;;15.50;29.70;;;;;;5062889;28;42875;-79
2022/03/22 06:16:25;;;;;;;;;;;15.40;29.40;;;;;;5063417;28;43591;-79
2022/03/22 06:18:51;;;;;;;;;;;15.40;28.80;;;;;;5063637;28;43789;-78
2022/03/22 06:21:16;;;;;;;;;;;15.30;28.30;;;;;;5063158;28;43181;-79
2022/03/22 06:23:42;;;;;;;;;;;15.30;28.80;;;;;;5061767;28;43300;-80
2022/03/22 06:26:07;;;;;;;;;;;15.30;28.60;;;;;;5062639;28;43398;-80
2022/03/22 06:28:33;;;;;;;;;;;15.20;28.30;;;;;;5063151;28;43058;-79
2022/03/22 06:30:58;;;;;;;;;;;15.20;28.30;;;;;;5063558;28;43670;-80
2022/03/22 06:33:24;;;;;;;;;;;15.10;27.80;;;;;;5063540;28;43356;-81
2022/03/22 06:35:50;;;;;;;;;;;15.10;28.00;;;;;;5062796;28;43070;-80
2022/03/22 06:38:16;;;;;;;;;;;15.10;28.30;;;;;;5061980;28;43236;-76
2022/03/22 06:40:41;;;;;;;;;;;15.20;28.30;;;;;;5063039;28;43825;-76
2022/03/22 06:43:08;;;;;;;;;;;15.10;28.60;;;;;;5062775;28;42966;-76
2022/03/22 06:45:34;;;;;;;;;;;14.90;28.50;;;;;;5063795;28;43564;-76
2022/03/22 06:48:00;;;;;;;;;;;14.90;28.50;;;;;;5063235;28;43033;-75
2022/03/22 06:50:26;;;;;;;;;;;15.10;28.80;;;;;;5063305;28;42927;-75
2022/03/22 06:52:51;;;;;;;;;;;15.20;29.00;;;;;;5050372;28;42981;-76
2022/03/22 06:55:22;;;;;;;;;;;15.10;28.90;;;;;;5062784;28;42943;-76
2022/03/22 06:57:49;;;;;;;;;;;15.20;28.70;;;;;;5063182;28;42975;-76
2022/03/22 07:00:19;;;;;;;;;;;15.10;28.80;;;;;;5063400;28;42840;-77
2022/03/22 07:02:46;;;;;;;;;;;15.20;28.80;;;;;;5062752;28;42999;-77
2022/03/22 07:05:11;;;;;;;;;;;15.20;28.90;;;;;;5052744;28;43140;-76
2022/03/22 07:07:38;;;;;;;;;;;15.40;28.90;;;;;;5061529;28;43584;-76
2022/03/22 07:10:04;;;;;;;;;;;15.60;29.40;;;;;;5051179;28;43062;-77
2022/03/22 07:12:30;;;;;;;;;;;15.80;29.70;;;;;;5041821;28;42952;-76
2022/03/22 07:14:56;;;;;;;;;;;15.90;29.70;;;;;;5043333;28;43069;-76
2022/03/22 07:17:21;;;;;;;;;;;16.00;30.00;;;;;;5043813;28;43243;-76
2022/03/22 07:19:47;;;;;;;;;;;16.20;30.10;;;;;;5043355;28;42887;-77
2022/03/22 07:22:13;;;;;;;;;;;16.20;30.20;;;;;;5043898;28;42857;-77
2022/03/22 07:24:39;;;;;;;;;;;16.30;30.20;;;;;;5025628;28;45463;-78
2022/03/22 07:27:04;;;;;;;;;;;16.30;30.50;;;;;;5025585;28;42961;-76
2022/03/22 07:29:30;;;;;;;;;;;16.40;30.00;;;;;;5043564;28;43468;-76
2022/03/22 07:31:59;;;;;;;;;;;16.40;30.00;;;;;;5043594;28;42984;-75
2022/03/22 07:34:25;;;;;;;;;;;16.50;30.10;;;;;;5044540;28;42840;-77
2022/03/22 07:36:53;;;;;;;;;;;16.50;29.90;;;;;;5046357;28;42889;-76
2022/03/22 07:39:20;;;;;;;;;;;16.50;29.60;;;;;;5046587;28;43051;-75
2022/03/22 07:41:46;;;;;;;;;;;16.50;29.50;;;;;;5046156;28;42904;-76
2022/03/22 07:44:15;;;;;;;;;;;16.60;29.40;;;;;;5049888;28;43680;-76
2022/03/22 07:46:41;;;;;;;;;;;16.50;29.40;;;;;;5066606;28;42918;-76
2022/03/22 07:54:35;;;;;;;;;;;16.60;29.40;;;;;;5067320;28;42952;-75
2022/03/22 07:57:01;;;;;;;;;;;16.60;29.10;;;;;;5066259;28;42989;-76
2022/03/22 07:59:27;;;;;;;;;;;16.60;28.50;;;;;;5066639;28;43007;-76
2022/03/22 08:01:53;;;;;;;;;;;16.60;28.00;;;;;;5067115;28;42931;-76
2022/03/22 08:04:18;;;;;;;;;;;16.60;28.30;;;;;;5066807;28;43887;-76
2022/03/22 08:06:44;;;;;;;;;;;16.60;27.60;;;;;;5067181;28;42958;-76
2022/03/22 08:09:09;;;;;;;;;;;16.70;27.90;;;;;;5066710;28;42897;-75
2022/03/22 08:11:36;;;;;;;;;;;16.70;28.40;;;;;;5066634;28;43028;-77
2022/03/22 08:14:03;;;;;;;;;;;16.70;27.90;;;;;;5065307;28;43593;-77
2022/03/22 08:16:28;;;;;;;;;;;16.70;27.40;;;;;;5066295;28;43144;-77
2022/03/22 08:18:54;;;;;;;;;;;16.70;27.60;;;;;;5066304;28;43011;-76
2022/03/22 08:21:20;;;;;;;;;;;16.70;28.60;;;;;;5065664;28;42869;-81
2022/03/22 08:23:45;;;;;;;;;;;16.70;28.20;;;;;;5065560;28;44241;-80
2022/03/22 08:26:11;;;;;;;;;;;16.80;29.50;;;;;;5066326;28;42962;-80
2022/03/22 08:28:36;;;;;;;;;;;16.80;28.50;;;;;;5066682;28;42939;-77
2022/03/22 08:31:02;;;;;;;;;;;16.70;28.30;;;;;;5066106;28;43021;-81
2022/03/22 08:33:28;;;;;;;;;;;16.70;29.20;;;;;;5067375;28;43014;-78
2022/03/22 08:35:53;;;;;;;;;;;16.80;29.00;;;;;;5068731;28;43072;-80
2022/03/22 08:38:20;;;;;;;;;;;16.80;28.60;;;;;;5066546;28;42961;-78
2022/03/22 08:40:46;;;;;;;;;;;16.80;28.50;;;;;;5066397;28;43015;-79
2022/03/22 08:43:12;;;;;;;;;;;16.80;28.30;;;;;;5066011;28;43472;-77
2022/03/22 08:45:37;;;;;;;;;;;16.80;28.00;;;;;;5064020;28;42992;-80
2022/03/22 08:48:09;;;;;;;;;;;16.80;28.00;;;;;;5046498;28;43011;-82
2022/03/22 08:50:35;;;;;;;;;;;16.80;28.20;;;;;;5065464;28;42944;-76
2022/03/22 08:53:01;;;;;;;;;;;16.80;28.00;;;;;;5065768;28;44158;-76
2022/03/22 08:55:27;;;;;;;;;;;16.90;28.50;;;;;;5066228;28;42978;-78
2022/03/22 08:57:52;;;;;;;;;;;16.70;27.40;;;;;;5065677;28;42878;-81
2022/03/22 09:00:19;;;;;;;;;;;16.60;26.70;;;;;;5065910;28;43024;-81
2022/03/22 09:02:46;;;;;;;;;;;16.70;27.50;;;;;;5065876;28;43372;-76
2022/03/22 09:07:58;;;;;;;;;;;16.70;27.60;;;;;;5066121;28;43021;-81
2022/03/22 09:10:24;;;;;;;;;;;16.40;26.20;;;;;;5065652;28;43070;-76
2022/03/22 09:12:49;;;;;;;;;;;16.40;26.00;;;;;;5063610;28;42979;-81
2022/03/22 09:15:15;;;;;;;;;;;16.50;26.00;;;;;;5065412;28;42975;-81
2022/03/22 09:17:41;;;;;;;;;;;16.50;26.00;;;;;;5065605;28;43474;-80
2022/03/22 09:20:07;;;;;;;;;;;16.40;25.20;;;;;;5065242;28;42790;-79
2022/03/22 09:22:33;;;;;;;;;;;16.40;25.50;;;;;;5065041;28;43813;-77
2022/03/22 09:24:59;;;;;;;;;;;16.40;25.10;;;;;;5065550;28;42891;-76
2022/03/22 09:27:24;;;;;;;;;;;16.20;24.90;;;;;;5065973;28;42926;-78
2022/03/22 09:29:50;;;;;;;;;;;16.20;24.60;;;;;;5065904;28;42825;-80
2022/03/22 09:32:15;;;;;;;;;;;16.80;25.00;;;;;;5065340;28;43460;-80
2022/03/22 09:34:41;;;;;;;;;;;16.10;24.30;;;;;;5065257;28;43114;-77
2022/03/22 09:37:07;;;;;;;;;;;16.10;24.50;;;;;;5065182;28;43035;-76
2022/03/22 09:39:33;;;;;;;;;;;16.00;24.80;;;;;;5065692;28;42915;-76
2022/03/22 09:42:00;;;;;;;;;;;16.00;24.80;;;;;;5065339;28;42955;-78
2022/03/22 09:44:29;;;;;;;;;;;16.10;24.60;;;;;;5064970;28;42974;-76
2022/03/22 09:46:56;;;;;;;;;;;16.20;24.80;;;;;;5065536;28;43465;-80
2022/03/22 09:49:21;;;;;;;;;;;16.30;25.30;;;;;;5064857;28;42900;-81
2022/03/22 09:51:48;;;;;;;;;;;16.40;25.40;;;;;;5065023;28;43163;-76
2022/03/22 09:54:18;;;;;;;;;;;16.50;25.90;;;;;;5064936;28;42943;-80
2022/03/22 09:56:44;;;;;;;;;;;16.50;25.20;;;;;;5065253;28;43367;-79
2022/03/22 09:59:09;;;;;;;;;;;16.50;25.90;;;;;;5064858;28;43005;-79
2022/03/22 10:01:35;;;;;;;;;;;16.40;25.40;;;;;;5064924;28;43488;-78
2022/03/22 10:04:14;;;;;;;;;;;16.30;25.50;;;;;;5065185;28;42972;-77
2022/03/22 10:06:50;;;;;;;;;;;16.30;25.30;;;;;;5064773;28;43438;-77
2022/03/22 10:09:26;;;;;;;;;;;16.30;25.20;;;;;;5064824;28;43032;-78
2022/03/22 10:11:51;;;;;;;;;;;16.40;25.60;;;;;;5064828;28;43502;-76
2022/03/22 10:14:18;;;;;;;;;;;16.40;25.30;;;;;;5064831;28;42836;-76
2022/03/22 10:16:45;;;;;;;;;;;16.50;26.10;;;;;;5064952;28;42962;-76
2022/03/22 10:19:17;;;;;;;;;;;16.50;26.10;;;;;;5064862;28;43130;-77
2022/03/22 10:21:44;;;;;;;;;;;16.50;25.90;;;;;;5063747;28;42935;-79
2022/03/22 10:24:12;;;;;;;;;;;16.50;25.70;;;;;;5046135;28;43062;-78
2022/03/22 10:26:38;;;;;;;;;;;16.50;25.90;;;;;;5064181;28;42943;-80
2022/03/22 10:29:06;;;;;;;;;;;16.50;26.20;;;;;;5064545;28;42991;-77
2022/03/22 10:31:33;;;;;;;;;;;16.50;25.90;;;;;;5063738;28;44538;-76
2022/03/22 10:33:59;;;;;;;;;;;16.40;25.30;;;;;;5063836;28;42964;-76
2022/03/22 10:36:25;;;;;;;;;;;16.40;25.70;;;;;;5064990;28;43319;-79
2022/03/22 10:38:55;;;;;;;;;;;16.30;25.80;;;;;;5064506;28;42982;-78
2022/03/22 10:41:27;;;;;;;;;;;16.40;25.90;;;;;;5064725;28;42989;-78
2022/03/22 10:44:06;;;;;;;;;;;16.30;25.40;;;;;;5045940;28;43091;-77
2022/03/22 10:46:33;;;;;;;;;;;16.40;25.80;;;;;;5063850;28;42899;-77
2022/03/22 10:49:17;;;;;;;;;;;16.40;25.70;;;;;;5063301;28;43221;-76
2022/03/22 10:51:47;;;;;;;;;;;16.30;25.50;;;;;;5063669;28;43820;-79
2022/03/22 10:54:17;;;;;;;;;;;16.30;25.60;;;;;;5063157;28;42962;-79
2022/03/22 10:56:50;;;;;;;;;;;16.40;25.70;;;;;;5063577;28;43003;-76
2022/03/22 10:59:16;;;;;;;;;;;16.50;25.90;;;;;;5063950;28;43157;-79
2022/03/22 11:01:43;;;;;;;;;;;16.60;26.00;;;;;;5064202;28;42984;-81
2022/03/22 11:04:09;;;;;;;;;;;16.50;25.70;;;;;;5045867;28;43027;-77
2022/03/22 11:06:37;;;;;;;;;;;16.60;25.70;;;;;;5064030;28;43477;-74
2022/03/22 11:09:03;;;;;;;;;;;16.60;25.50;;;;;;5063503;28;42978;-78
2022/03/22 11:11:31;;;;;;;;;;;16.40;25.10;;;;;;5064063;28;43604;-76
2022/03/22 11:13:56;;;;;;;;;;;16.40;25.40;;;;;;5063918;28;42900;-80
2022/03/22 11:16:24;;;;;;;;;;;16.50;25.70;;;;;;5063559;28;42840;-78
2022/03/22 11:18:50;;;;;;;;;;;16.50;25.00;;;;;;5064498;28;43019;-76
2022/03/22 11:21:16;;;;;;;;;;;15.70;23.90;;;;;;5063983;28;42941;-75
2022/03/22 11:23:44;;;;;;;;;;;16.40;24.60;;;;;;5064148;28;42949;-76
2022/03/22 11:26:16;;;;;;;;;;;16.40;25.10;;;;;;5063033;28;43301;-76
2022/03/22 11:28:42;;;;;;;;;;;16.60;25.40;;;;;;5064341;28;42903;-78
2022/03/22 11:31:10;;;;;;;;;;;16.50;25.00;;;;;;5063933;28;42989;-79
2022/03/22 11:36:22;;;;;;;;;;;16.30;24.70;;;;;;5064032;28;43182;-75
2022/03/22 11:38:52;;;;;;;;;;;16.40;24.80;;;;;;5063840;28;42912;-78
2022/03/22 11:44:07;;;;;;;;;;;16.30;24.70;;;;;;5066178;28;42979;-78
2022/03/22 11:46:32;;;;;;;;;;;16.30;24.60;;;;;;5084313;28;42937;-77
2022/03/22 11:49:10;;;;;;;;;;;16.40;24.50;;;;;;5083670;28;43015;-76
2022/03/22 11:51:45;;;;;;;;;;;16.40;24.70;;;;;;5083336;28;42797;-77
2022/03/22 11:54:10;;;;;;;;;;;16.40;24.90;;;;;;5083568;28;43505;-76
2022/03/22 11:56:44;;;;;;;;;;;16.50;24.90;;;;;;5084077;28;43727;-77
2022/03/22 11:59:12;;;;;;;;;;;16.60;25.40;;;;;;5084151;28;42997;-76
2022/03/22 12:01:38;;;;;;;;;;;16.60;25.10;;;;;;5064504;28;44892;-76
2022/03/22 12:04:14;;;;;;;;;;;16.40;24.40;;;;;;5083451;28;43100;-76
2022/03/22 12:06:39;;;;;;;;;;;16.50;24.70;;;;;;5083690;28;42849;-76
2022/03/22 12:09:06;;;;;;;;;;;16.40;24.30;;;;;;5083653;28;42836;-76
2022/03/22 12:11:32;;;;;;;;;;;16.40;25.00;;;;;;5083229;28;42894;-77
2022/03/22 12:13:57;;;;;;;;;;;16.50;25.10;;;;;;5083303;28;42963;-77
2022/03/22 12:16:26;;;;;;;;;;;16.50;25.40;;;;;;5082380;28;44727;-77
2022/03/22 12:18:52;;;;;;;;;;;16.60;24.70;;;;;;5082740;28;43037;-76
2022/03/22 12:21:18;;;;;;;;;;;16.60;25.60;;;;;;5084712;27;42911;-77
2022/03/22 12:23:45;;;;;;;;;;;16.50;25.20;;;;;;5086078;28;43612;-75
2022/03/22 12:26:10;;;;;;;;;;;16.50;25.30;;;;;;5067913;28;44434;-77
2022/03/22 12:28:45;;;;;;;;;;;16.50;25.40;;;;;;5086598;28;43076;-77
2022/03/22 12:31:14;;;;;;;;;;;16.50;25.60;;;;;;5086827;28;43503;-77
2022/03/22 12:33:40;;;;;;;;;;;16.70;24.80;;;;;;5086969;28;42950;-76
2022/03/22 12:36:05;;;;;;;;;;;16.70;25.10;;;;;;5086378;28;43784;-77
2022/03/22 12:38:31;;;;;;;;;;;16.80;25.10;;;;;;5086822;28;43251;-76
2022/03/22 12:40:56;;;;;;;;;;;16.80;24.60;;;;;;5086398;28;43155;-76
2022/03/22 12:43:23;;;;;;;;;;;16.80;24.90;;;;;;5085928;28;42947;-75
2022/03/22 12:45:49;;;;;;;;;;;16.70;25.90;;;;;;5068047;28;43431;-78
2022/03/22 12:48:18;;;;;;;;;;;16.60;25.70;;;;;;5066233;28;43038;-75
2022/03/22 12:50:44;;;;;;;;;;;16.60;25.80;;;;;;5065608;28;42941;-75
2022/03/22 12:53:09;;;;;;;;;;;16.60;25.80;;;;;;5065532;28;43001;-75
2022/03/22 12:55:37;;;;;;;;;;;16.50;24.80;;;;;;5065305;28;43825;-76
2022/03/22 12:58:02;;;;;;;;;;;16.50;24.90;;;;;;5065462;28;43250;-76
2022/03/22 13:00:30;;;;;;;;;;;16.50;24.90;;;;;;5065946;28;42931;-74
2022/03/22 13:02:56;;;;;;;;;;;16.60;25.40;;;;;;5065710;28;42883;-75
2022/03/22 13:05:23;;;;;;;;;;;16.60;25.30;;;;;;5066052;28;43584;-76
2022/03/22 13:07:48;;;;;;;;;;;16.60;25.50;;;;;;5065355;28;43758;-76
2022/03/22 13:12:58;;;;;;;;;;;16.50;25.20;;;;;;5065489;28;42804;-75
2022/03/22 13:15:23;;;;;;;;;;;16.60;25.50;;;;;;5065612;28;43865;-77
2022/03/22 13:17:50;;;;;;;;;;;16.60;25.20;;;;;;5064815;28;42858;-77
2022/03/22 13:20:28;;;;;;;;;;;16.60;25.70;;;;;;5064295;28;44316;-75
2022/03/22 13:22:56;;;;;;;;;;;16.60;25.40;;;;;;5054209;28;43098;-77
2022/03/22 13:25:30;;;;;;;;;;;16.60;25.70;;;;;;5057850;28;43316;-75
2022/03/22 13:28:12;;;;;;;;;;;16.60;25.60;;;;;;5064187;28;43072;-75
2022/03/22 13:30:39;;;;;;;;;;;16.60;25.50;;;;;;5064949;28;42950;-75
2022/03/22 13:33:09;;;;;;;;;;;16.60;25.50;;;;;;5064522;28;43215;-76
2022/03/22 13:35:34;;;;;;;;;;;16.60;25.40;;;;;;5064044;28;43615;-75
2022/03/22 13:38:04;;;;;;;;;;;16.60;25.60;;;;;;5058631;28;43051;-75
2022/03/22 13:40:34;;;;;;;;;;;16.60;25.80;;;;;;5060278;28;43857;-77
2022/03/22 13:43:08;;;;;;;;;;;16.60;25.60;;;;;;5063243;28;42953;-76
2022/03/22 13:45:34;;;;;;;;;;;16.60;25.00;;;;;;5080013;28;43683;-78
2022/03/22 13:48:07;;;;;;;;;;;16.60;25.50;;;;;;5085541;28;42887;-76
2022/03/22 13:50:33;;;;;;;;;;;16.60;26.10;;;;;;5085065;28;43355;-76
2022/03/22 13:52:59;;;;;;;;;;;16.70;25.30;;;;;;5085013;28;42973;-76
2022/03/22 13:55:26;;;;;;;;;;;16.70;26.00;;;;;;5084827;28;43619;-76
2022/03/22 13:57:52;;;;;;;;;;;16.70;26.30;;;;;;5085709;28;42958;-76
2022/03/22 14:00:19;;;;;;;;;;;16.70;26.00;;;;;;5085317;28;42980;-77
2022/03/22 14:02:45;;;;;;;;;;;16.70;26.10;;;;;;5085394;28;42970;-77
2022/03/22 14:05:10;;;;;;;;;;;16.70;26.30;;;;;;5085098;28;43574;-77
2022/03/22 14:07:36;;;;;;;;;;;16.70;26.00;;;;;;5085435;28;43029;-76
2022/03/22 14:10:03;;;;;;;;;;;16.70;26.40;;;;;;5066546;28;43585;-76
2022/03/22 14:12:29;;;;;;;;;;;16.70;26.50;;;;;;5084707;28;43034;-77
2022/03/22 14:14:54;;;;;;;;;;;16.70;26.00;;;;;;5084510;28;42978;-76
2022/03/22 14:17:20;;;;;;;;;;;16.70;26.30;;;;;;5084660;28;42964;-77
2022/03/22 14:19:45;;;;;;;;;;;16.70;26.30;;;;;;5066323;28;43233;-77
2022/03/22 14:22:11;;;;;;;;;;;16.70;26.60;;;;;;5084344;28;43182;-76
2022/03/22 14:24:37;;;;;;;;;;;16.70;25.80;;;;;;5084437;28;43966;-75
2022/03/22 14:27:02;;;;;;;;;;;16.70;25.80;;;;;;5084684;28;42961;-77
2022/03/22 14:29:29;;;;;;;;;;;16.70;26.40;;;;;;5084785;28;43428;-74
2022/03/22 14:31:54;;;;;;;;;;;16.70;26.80;;;;;;5084746;28;43169;-78
2022/03/22 14:37:05;;;;;;;;;;;16.80;26.70;;;;;;5085238;28;42879;-75
2022/03/22 14:39:31;;;;;;;;;;;16.70;26.80;;;;;;5085035;28;43045;-76
2022/03/22 14:41:56;;;;;;;;;;;16.70;26.50;;;;;;5084707;28;42994;-76
2022/03/22 14:44:22;;;;;;;;;;;16.70;26.10;;;;;;5078341;28;43417;-77
2022/03/22 14:46:53;;;;;;;;;;;16.70;26.20;;;;;;5064448;28;43011;-76
2022/03/22 14:49:19;;;;;;;;;;;16.80;26.20;;;;;;5064039;28;44578;-76
2022/03/22 14:54:32;;;;;;;;;;;16.80;26.20;;;;;;5064626;28;42931;-77
2022/03/22 14:59:42;;;;;;;;;;;16.80;26.30;;;;;;5063880;28;43186;-76
2022/03/22 15:02:07;;;;;;;;;;;16.80;26.20;;;;;;5064386;28;42875;-76
2022/03/22 15:04:34;;;;;;;;;;;16.70;26.10;;;;;;5064010;28;42925;-75
2022/03/22 15:06:59;;;;;;;;;;;16.70;26.20;;;;;;5064255;28;43075;-74